createdAt,value
2022-08-26T00:01:30.681Z,101402.53
2022-08-26T00:03:57.104Z,101403.56
2022-08-26T00:06:24.774Z,101399.44
2022-08-26T00:08:51.559Z,101404.84
2022-08-26T00:11:26.705Z,101408.53
2022-08-26T00:13:54.900Z,101411.63
2022-08-26T00:16:22.474Z,101413.69
2022-08-26T00:18:49.227Z,101417.63
2022-08-26T00:21:15.727Z,101414.97
2022-08-26T00:23:42.154Z,101418.69
2022-08-26T00:26:08.542Z,101411.75
2022-08-26T00:28:37.782Z,101415.22
2022-08-26T00:31:04.441Z,101414.41
2022-08-26T00:33:33.336Z,101411.78
2022-08-26T00:36:00.371Z,101405.81
2022-08-26T00:38:27.435Z,101399.22
2022-08-26T00:40:56.656Z,101401.03
2022-08-26T00:43:25.432Z,101398.13
2022-08-26T00:46:04.716Z,101399.41
2022-08-26T00:48:35.491Z,101404.97
2022-08-26T00:51:24.534Z,101400.22
2022-08-26T00:54:03.620Z,101408.25
2022-08-26T00:57:02.327Z,101412.38
2022-08-26T00:59:32.859Z,101416.91
2022-08-26T01:02:00.679Z,101405.16
2022-08-26T01:04:31.170Z,101415.06
2022-08-26T01:06:57.627Z,101415.47
2022-08-26T01:09:24.327Z,101422.28
2022-08-26T01:11:55.290Z,101416.72
2022-08-26T01:14:22.825Z,101419.44
2022-08-26T01:16:49.992Z,101417.59
2022-08-26T01:19:26.820Z,101415.31
2022-08-26T01:22:05.311Z,101418.38
2022-08-26T01:24:32.067Z,101416.94
2022-08-26T01:27:03.370Z,101413.44
2022-08-26T01:29:33.456Z,101416.97
2022-08-26T01:32:00.173Z,101409.38
2022-08-26T01:34:33.110Z,101399.72
2022-08-26T01:37:07.476Z,101406.09
2022-08-26T01:39:35.911Z,101411.66
2022-08-26T01:42:03.417Z,101408.75
2022-08-26T01:44:36.381Z,101407.75
2022-08-26T01:47:05.061Z,101411.03
2022-08-26T01:49:35.722Z,101410.44
2022-08-26T01:52:04.724Z,101415.56
2022-08-26T01:54:32.387Z,101418.09
2022-08-26T01:56:59.495Z,101419.50
2022-08-26T01:59:26.332Z,101420.56
2022-08-26T02:01:53.006Z,101428.97
2022-08-26T02:04:29.034Z,101432.88
2022-08-26T02:06:56.840Z,101431.06
2022-08-26T02:09:24.354Z,101426.91
2022-08-26T02:11:52.097Z,101428.59
2022-08-26T02:14:26.876Z,101430.19
2022-08-26T02:16:54.018Z,101421.22
2022-08-26T02:19:25.835Z,101426.31
2022-08-26T02:21:53.626Z,101426.56
2022-08-26T02:24:24.748Z,101425.91
2022-08-26T02:26:54.266Z,101423.06
2022-08-26T02:29:30.658Z,101416.06
2022-08-26T02:31:58.002Z,101417.72
2022-08-26T02:34:33.082Z,101423.28
2022-08-26T02:37:01.538Z,101424.53
2022-08-26T02:39:29.572Z,101422.25
2022-08-26T02:41:56.642Z,101417.72
2022-08-26T02:44:23.039Z,101428.03
2022-08-26T02:46:49.460Z,101434.41
2022-08-26T02:49:17.040Z,101426.59
2022-08-26T02:51:43.676Z,101435.63
2022-08-26T02:54:10.274Z,101432.75
2022-08-26T02:56:37.150Z,101428.41
2022-08-26T02:59:04.081Z,101430.06
2022-08-26T03:01:33.563Z,101428.66
2022-08-26T03:04:03.055Z,101425.53
2022-08-26T03:06:30.030Z,101421.03
2022-08-26T03:08:56.650Z,101416.91
2022-08-26T03:11:23.715Z,101417.94
2022-08-26T03:13:51.540Z,101413.22
2022-08-26T03:18:52.095Z,101413.03
2022-08-26T03:21:20.260Z,101414.44
2022-08-26T03:23:47.594Z,101420.63
2022-08-26T03:26:14.941Z,101421.69
2022-08-26T03:29:01.628Z,101418.81
2022-08-26T03:31:29.625Z,101424.75
2022-08-26T03:33:59.611Z,101427.84
2022-08-26T03:36:27.059Z,101423.31
2022-08-26T03:38:53.648Z,101440.19
2022-08-26T03:41:21.251Z,101447.78
2022-08-26T03:43:48.365Z,101444.91
2022-08-26T03:46:14.959Z,101440.59
2022-08-26T03:48:41.328Z,101437.09
2022-08-26T03:51:18.231Z,101432.13
2022-08-26T03:53:45.799Z,101439.09
2022-08-26T03:56:12.754Z,101447.78
2022-08-26T03:58:39.604Z,101450.81
2022-08-26T04:01:09.405Z,101445.31
2022-08-26T04:03:54.571Z,101449.59
2022-08-26T04:06:20.973Z,101452.28
2022-08-26T04:08:48.027Z,101438.28
2022-08-26T04:11:23.779Z,101437.63
2022-08-26T04:13:50.318Z,101432.91
2022-08-26T04:16:17.609Z,101429.84
2022-08-26T04:18:46.620Z,101437.03
2022-08-26T04:21:15.347Z,101435.19
2022-08-26T04:23:47.609Z,101431.09
2022-08-26T04:26:15.099Z,101439.31
2022-08-26T04:28:41.638Z,101432.13
2022-08-26T04:31:12.525Z,101441.97
2022-08-26T04:33:41.667Z,101438.31
2022-08-26T04:36:09.253Z,101437.84
2022-08-26T04:38:36.497Z,101439.91
2022-08-26T04:41:05.448Z,101437.03
2022-08-26T04:43:32.228Z,101442.81
2022-08-26T04:48:28.902Z,101449.00
2022-08-26T04:50:56.271Z,101450.03
2022-08-26T04:53:23.795Z,101452.09
2022-08-26T04:55:52.445Z,101450.88
2022-08-26T04:58:24.386Z,101448.41
2022-08-26T05:00:54.153Z,101446.34
2022-08-26T05:03:21.206Z,101459.72
2022-08-26T05:05:51.908Z,101462.38
2022-08-26T05:08:20.163Z,101458.47
2022-08-26T05:10:56.229Z,101457.44
2022-08-26T05:13:26.303Z,101459.91
2022-08-26T05:15:54.348Z,101467.72
2022-08-26T05:18:22.927Z,101459.31
2022-08-26T05:20:54.043Z,101461.78
2022-08-26T05:23:22.654Z,101464.63
2022-08-26T05:25:53.619Z,101466.28
2022-08-26T05:28:22.883Z,101473.84
2022-08-26T05:30:49.650Z,101475.50
2022-08-26T05:33:16.522Z,101476.13
2022-08-26T05:35:45.381Z,101481.47
2022-08-26T05:38:15.509Z,101480.03
2022-08-26T05:40:45.902Z,101489.28
2022-08-26T05:43:13.422Z,101487.44
2022-08-26T05:45:45.824Z,101493.81
2022-08-26T05:48:14.082Z,101489.69
2022-08-26T05:50:43.488Z,101495.84
2022-08-26T05:53:11.804Z,101499.53
2022-08-26T05:55:53.320Z,101494.19
2022-08-26T05:58:21.700Z,101496.88
2022-08-26T06:01:14.296Z,101492.31
2022-08-26T06:03:44.763Z,101495.22
2022-08-26T06:06:14.660Z,101497.50
2022-08-26T06:08:41.857Z,101497.25
2022-08-26T06:11:18.271Z,101505.47
2022-08-26T06:13:46.331Z,101495.78
2022-08-26T06:16:18.148Z,101506.88
2022-08-26T06:18:47.434Z,101503.56
2022-08-26T06:21:17.328Z,101508.09
2022-08-26T06:24:03.588Z,101515.09
2022-08-26T06:26:31.360Z,101502.31
2022-08-26T06:28:58.536Z,101508.69
2022-08-26T06:31:26.658Z,101514.22
2022-08-26T06:33:54.342Z,101511.56
2022-08-26T06:36:24.127Z,101513.63
2022-08-26T06:38:52.417Z,101520.38
2022-08-26T06:41:23.683Z,101510.09
2022-08-26T06:43:50.370Z,101516.44
2022-08-26T06:46:19.980Z,101517.91
2022-08-26T06:48:47.212Z,101521.00
2022-08-26T06:51:17.610Z,101528.16
2022-08-26T06:53:46.893Z,101524.88
2022-08-26T06:56:16.013Z,101526.25
2022-08-26T06:58:43.610Z,101518.63
2022-08-26T07:01:31.157Z,101527.03
2022-08-26T07:04:00.501Z,101533.22
2022-08-26T07:06:28.179Z,101536.69
2022-08-26T07:09:01.629Z,101532.38
2022-08-26T07:11:30.470Z,101538.34
2022-08-26T07:13:58.804Z,101539.53
2022-08-26T07:16:27.195Z,101535.78
2022-08-26T07:18:54.666Z,101538.81
2022-08-26T07:21:22.168Z,101541.91
2022-08-26T07:23:50.987Z,101542.34
2022-08-26T07:26:26.832Z,101533.84
2022-08-26T07:28:56.583Z,101536.09
2022-08-26T07:31:25.937Z,101544.88
2022-08-26T07:33:53.594Z,101553.13
2022-08-26T07:36:21.709Z,101559.13
2022-08-26T07:38:48.206Z,101560.13
2022-08-26T07:41:17.996Z,101564.47
2022-08-26T07:43:46.012Z,101553.50
2022-08-26T07:46:18.400Z,101554.34
2022-08-26T07:48:48.715Z,101562.75
2022-08-26T07:51:15.804Z,101562.72
2022-08-26T07:53:43.976Z,101566.81
2022-08-26T07:56:14.648Z,101572.97
2022-08-26T07:58:41.120Z,101578.53
2022-08-26T08:01:09.131Z,101568.00
2022-08-26T08:03:35.583Z,101575.56
2022-08-26T08:06:01.989Z,101573.06
2022-08-26T08:08:29.072Z,101573.97
2022-08-26T08:10:56.286Z,101569.81
2022-08-26T08:13:24.223Z,101566.25
2022-08-26T08:15:51.059Z,101574.47
2022-08-26T08:18:20.475Z,101571.19
2022-08-26T08:21:04.803Z,101572.22
2022-08-26T08:23:34.336Z,101573.38
2022-08-26T08:26:10.495Z,101575.41
2022-08-26T08:28:39.785Z,101571.69
2022-08-26T08:31:08.161Z,101572.34
2022-08-26T08:33:35.255Z,101577.69
2022-08-26T08:36:01.943Z,101577.34
2022-08-26T08:38:29.522Z,101576.75
2022-08-26T08:40:55.979Z,101577.81
2022-08-26T08:43:38.340Z,101580.63
2022-08-26T08:46:11.814Z,101583.59
2022-08-26T08:48:43.568Z,101572.66
2022-08-26T08:51:48.023Z,101583.53
2022-08-26T08:54:14.526Z,101582.94
2022-08-26T08:56:48.936Z,101583.44
2022-08-26T08:59:24.726Z,101583.13
2022-08-26T09:02:00.040Z,101600.56
2022-08-26T09:05:00.786Z,101599.34
2022-08-26T09:07:57.582Z,101595.63
2022-08-26T09:10:45.468Z,101596.47
2022-08-26T09:13:16.984Z,101593.59
2022-08-26T09:16:14.113Z,101595.63
2022-08-26T09:19:04.933Z,101596.41
2022-08-26T09:21:32.386Z,101593.91
2022-08-26T09:23:59.652Z,101592.25
2022-08-26T09:26:38.230Z,101596.53
2022-08-26T09:29:11.124Z,101598.22
2022-08-26T09:31:41.439Z,101595.31
2022-08-26T09:34:21.171Z,101591.53
2022-08-26T09:36:54.919Z,101595.44
2022-08-26T09:39:37.669Z,101595.75
2022-08-26T09:42:10.127Z,101590.44
2022-08-26T09:45:10.519Z,101597.94
2022-08-26T09:47:41.640Z,101599.88
2022-08-26T09:50:29.423Z,101597.00
2022-08-26T09:53:21.067Z,101590.84
2022-08-26T09:56:16.943Z,101598.69
2022-08-26T09:58:47.400Z,101596.78
2022-08-26T10:01:22.944Z,101599.09
2022-08-26T10:03:50.567Z,101597.88
2022-08-26T10:06:16.930Z,101599.97
2022-08-26T10:08:47.833Z,101600.34
2022-08-26T10:11:37.574Z,101588.56
2022-08-26T10:14:19.041Z,101593.31
2022-08-26T10:17:06.838Z,101589.34
2022-08-26T10:19:56.550Z,101587.28
2022-08-26T10:22:46.784Z,101587.72
2022-08-26T10:25:17.599Z,101588.53
2022-08-26T10:28:09.794Z,101594.44
2022-08-26T10:30:46.756Z,101590.44
2022-08-26T10:33:18.451Z,101597.06
2022-08-26T10:35:51.823Z,101602.56
2022-08-26T10:38:28.816Z,101599.16
2022-08-26T10:41:02.305Z,101590.66
2022-08-26T10:43:32.963Z,101593.09
2022-08-26T10:46:04.692Z,101591.53
2022-08-26T10:48:41.315Z,101595.75
2022-08-26T10:51:10.201Z,101592.84
2022-08-26T10:53:59.936Z,101588.31
2022-08-26T10:57:21.796Z,101601.78
2022-08-26T11:00:38.305Z,101606.97
2022-08-26T11:03:38.943Z,101599.00
2022-08-26T11:06:29.693Z,101601.47
2022-08-26T11:08:58.719Z,101601.28
2022-08-26T11:11:41.019Z,101603.56
2022-08-26T11:14:29.182Z,101607.28
2022-08-26T11:16:57.621Z,101610.63
2022-08-26T11:19:58.945Z,101609.59
2022-08-26T11:22:31.072Z,101606.22
2022-08-26T11:24:57.441Z,101610.63
2022-08-26T11:27:24.784Z,101608.06
2022-08-26T11:30:00.778Z,101605.31
2022-08-26T11:32:49.975Z,101612.34
2022-08-26T11:35:19.282Z,101610.06
2022-08-26T11:37:47.816Z,101612.16
2022-08-26T11:40:17.804Z,101608.41
2022-08-26T11:42:51.786Z,101596.69
2022-08-26T11:45:24.338Z,101596.88
2022-08-26T11:47:51.080Z,101592.09
2022-08-26T11:50:27.207Z,101593.03
2022-08-26T11:53:02.329Z,101594.50
2022-08-26T11:55:32.911Z,101596.19
2022-08-26T11:58:01.907Z,101593.09
2022-08-26T12:00:39.361Z,101585.00
2022-08-26T12:03:18.785Z,101588.53
2022-08-26T12:05:49.107Z,101587.56
2022-08-26T12:08:21.572Z,101598.88
2022-08-26T12:10:49.023Z,101599.16
2022-08-26T12:13:26.434Z,101598.28
2022-08-26T12:15:58.392Z,101595.13
2022-08-26T12:18:30.158Z,101591.84
2022-08-26T12:20:59.858Z,101603.84
2022-08-26T12:23:35.139Z,101595.78
2022-08-26T12:26:11.910Z,101607.09
2022-08-26T12:28:48.165Z,101609.53
2022-08-26T12:31:25.869Z,101603.75
2022-08-26T12:33:53.715Z,101595.13
2022-08-26T12:36:22.761Z,101598.38
2022-08-26T12:38:49.917Z,101595.72
2022-08-26T12:41:41.526Z,101594.72
2022-08-26T12:44:07.982Z,101602.97
2022-08-26T12:46:34.952Z,101595.88
2022-08-26T12:49:01.799Z,101601.13
2022-08-26T12:51:31.312Z,101591.53
2022-08-26T12:53:58.400Z,101599.72
2022-08-26T12:56:36.525Z,101603.31
2022-08-26T12:59:25.010Z,101609.69
2022-08-26T13:01:52.758Z,101609.44
2022-08-26T13:04:40.941Z,101608.75
2022-08-26T13:07:20.791Z,101606.19
2022-08-26T13:09:48.015Z,101606.50
2022-08-26T13:12:24.649Z,101604.63
2022-08-26T13:14:51.016Z,101610.91
2022-08-26T13:17:17.364Z,101613.28
2022-08-26T13:19:43.759Z,101607.38
2022-08-26T13:22:12.932Z,101605.00
2022-08-26T13:24:44.122Z,101611.47
2022-08-26T13:27:14.026Z,101605.59
2022-08-26T13:29:41.295Z,101613.78
2022-08-26T13:32:08.916Z,101611.22
2022-08-26T13:34:37.059Z,101602.81
2022-08-26T13:37:04.486Z,101606.22
2022-08-26T13:39:30.989Z,101608.31
2022-08-26T13:41:57.654Z,101606.44
2022-08-26T13:44:24.010Z,101608.13
2022-08-26T13:46:51.222Z,101606.34
2022-08-26T13:49:17.596Z,101609.34
2022-08-26T13:51:44.151Z,101602.59
2022-08-26T13:54:10.569Z,101606.94
2022-08-26T13:56:37.367Z,101606.13
2022-08-26T13:59:04.598Z,101608.22
2022-08-26T14:01:32.117Z,101604.50
2022-08-26T14:03:58.638Z,101597.47
2022-08-26T14:06:25.273Z,101599.34
2022-08-26T14:08:51.897Z,101603.50
2022-08-26T14:11:18.657Z,101597.91
2022-08-26T14:13:45.117Z,101601.03
2022-08-26T14:16:17.501Z,101601.81
2022-08-26T14:18:48.567Z,101607.19
2022-08-26T14:21:17.239Z,101613.84
2022-08-26T14:23:43.679Z,101617.41
2022-08-26T14:26:10.914Z,101617.59
2022-08-26T14:28:41.687Z,101613.91
2022-08-26T14:31:08.703Z,101613.09
2022-08-26T14:33:37.185Z,101602.53
2022-08-26T14:36:23.414Z,101604.81
2022-08-26T14:38:50.567Z,101600.88
2022-08-26T14:41:18.715Z,101598.81
2022-08-26T14:43:53.257Z,101598.41
2022-08-26T14:46:20.300Z,101598.19
2022-08-26T14:48:46.742Z,101590.91
2022-08-26T14:51:13.148Z,101586.13
2022-08-26T14:53:58.154Z,101593.94
2022-08-26T14:56:24.721Z,101587.03
2022-08-26T14:58:51.131Z,101592.72
2022-08-26T15:01:17.574Z,101583.41
2022-08-26T15:03:44.190Z,101581.69
2022-08-26T15:06:17.527Z,101565.75
2022-08-26T15:08:43.919Z,101567.00
2022-08-26T15:11:11.055Z,101567.94
2022-08-26T15:13:37.447Z,101564.25
2022-08-26T15:16:04.108Z,101563.56
2022-08-26T15:18:31.608Z,101565.94
2022-08-26T15:20:57.998Z,101575.47
2022-08-26T15:23:24.379Z,101582.28
2022-08-26T15:25:50.770Z,101569.53
2022-08-26T15:28:18.704Z,101576.84
2022-08-26T15:30:44.995Z,101567.66
2022-08-26T15:33:15.390Z,101566.25
2022-08-26T15:35:43.150Z,101570.00
2022-08-26T15:38:10.102Z,101568.28
2022-08-26T15:40:36.797Z,101571.22
2022-08-26T15:43:18.470Z,101564.63
2022-08-26T15:45:50.582Z,101570.19
2022-08-26T15:48:16.941Z,101565.25
2022-08-26T15:50:51.164Z,101573.97
2022-08-26T15:53:17.973Z,101570.91
2022-08-26T15:55:44.666Z,101570.78
2022-08-26T15:58:11.362Z,101573.00
2022-08-26T16:00:37.807Z,101568.09
2022-08-26T16:03:06.508Z,101561.66
2022-08-26T16:05:37.461Z,101569.88
2022-08-26T16:08:06.309Z,101579.03
2022-08-26T16:10:37.993Z,101583.22
2022-08-26T16:13:05.189Z,101583.28
2022-08-26T16:15:32.960Z,101581.91
2022-08-26T16:18:01.850Z,101582.09
2022-08-26T16:20:29.267Z,101579.09
2022-08-26T16:22:56.187Z,101574.41
2022-08-26T16:25:22.640Z,101571.72
2022-08-26T16:27:48.993Z,101579.75
2022-08-26T16:30:16.435Z,101576.41
2022-08-26T16:32:42.884Z,101582.38
2022-08-26T16:35:09.546Z,101578.88
2022-08-26T16:37:37.739Z,101580.97
2022-08-26T16:40:08.609Z,101576.16
2022-08-26T16:42:35.526Z,101579.31
2022-08-26T16:45:01.958Z,101582.78
2022-08-26T16:47:28.614Z,101586.06
2022-08-26T16:49:54.962Z,101588.91
2022-08-26T16:52:21.338Z,101587.91
2022-08-26T16:54:51.983Z,101590.38
2022-08-26T16:57:18.517Z,101580.56
2022-08-26T16:59:44.895Z,101579.31
2022-08-26T17:02:11.835Z,101583.84
2022-08-26T17:04:39.433Z,101589.59
2022-08-26T17:07:05.966Z,101589.66
2022-08-26T17:09:33.030Z,101581.41
2022-08-26T17:11:59.375Z,101577.06
2022-08-26T17:14:26.130Z,101581.25
2022-08-26T17:16:53.724Z,101581.25
2022-08-26T17:19:21.061Z,101574.25
2022-08-26T17:21:47.748Z,101589.97
2022-08-26T17:24:14.747Z,101592.94
2022-08-26T17:26:44.210Z,101594.63
2022-08-26T17:29:14.910Z,101592.59
2022-08-26T17:31:41.439Z,101599.00
2022-08-26T17:34:09.936Z,101592.22
2022-08-26T17:36:36.331Z,101602.09
2022-08-26T17:39:03.240Z,101602.31
2022-08-26T17:41:29.946Z,101603.56
2022-08-26T17:43:57.028Z,101610.94
2022-08-26T17:46:24.491Z,101611.34
2022-08-26T17:48:51.309Z,101606.22
2022-08-26T17:51:19.410Z,101609.94
2022-08-26T17:53:47.785Z,101615.91
2022-08-26T17:56:15.728Z,101615.94
2022-08-26T17:58:50.985Z,101622.31
2022-08-26T18:01:18.608Z,101620.47
2022-08-26T18:03:45.081Z,101627.88
2022-08-26T18:06:12.894Z,101615.75
2022-08-26T18:08:40.203Z,101626.63
2022-08-26T18:11:11.057Z,101623.16
2022-08-26T18:13:37.947Z,101628.47
2022-08-26T18:16:13.061Z,101632.00
2022-08-26T18:18:39.934Z,101631.16
2022-08-26T18:21:18.668Z,101633.63
2022-08-26T18:23:46.552Z,101637.34
2022-08-26T18:26:22.243Z,101642.66
2022-08-26T18:28:49.099Z,101646.75
2022-08-26T18:31:15.750Z,101653.72
2022-08-26T18:33:45.371Z,101645.50
2022-08-26T18:36:16.612Z,101648.97
2022-08-26T18:38:42.970Z,101649.97
2022-08-26T18:41:09.359Z,101651.81
2022-08-26T18:43:36.141Z,101651.63
2022-08-26T18:46:08.609Z,101653.88
2022-08-26T18:48:37.181Z,101650.59
2022-08-26T18:51:04.353Z,101652.25
2022-08-26T18:53:31.201Z,101658.84
2022-08-26T18:55:57.634Z,101666.22
2022-08-26T18:58:24.009Z,101663.56
2022-08-26T19:00:50.498Z,101662.13
2022-08-26T19:03:18.725Z,101667.28
2022-08-26T19:05:45.872Z,101661.28
2022-08-26T19:08:12.329Z,101663.75
2022-08-26T19:10:39.727Z,101669.47
2022-08-26T19:13:06.709Z,101675.66
2022-08-26T19:15:38.497Z,101675.44
2022-08-26T19:18:05.066Z,101673.38
2022-08-26T19:20:31.488Z,101683.00
2022-08-26T19:23:02.612Z,101681.16
2022-08-26T19:25:54.936Z,101669.66
2022-08-26T19:28:22.061Z,101675.56
2022-08-26T19:30:53.155Z,101678.25
2022-08-26T19:33:20.063Z,101688.72
2022-08-26T19:35:46.655Z,101684.44
2022-08-26T19:38:13.679Z,101684.84
2022-08-26T19:40:40.145Z,101685.25
2022-08-26T19:43:06.951Z,101686.47
2022-08-26T19:45:34.661Z,101688.31
2022-08-26T19:48:01.198Z,101686.00
2022-08-26T19:50:29.998Z,101688.91
2022-08-26T19:52:56.607Z,101685.53
2022-08-26T19:55:23.601Z,101694.34
2022-08-26T19:57:53.591Z,101689.59
2022-08-26T20:00:23.927Z,101695.72
2022-08-26T20:02:51.875Z,101690.59
2022-08-26T20:05:20.736Z,101689.97
2022-08-26T20:07:48.524Z,101693.00
2022-08-26T20:10:17.316Z,101692.63
2022-08-26T20:12:44.239Z,101684.59
2022-08-26T20:15:12.571Z,101695.91
2022-08-26T20:17:39.887Z,101696.47
2022-08-26T20:20:32.832Z,101694.78
2022-08-26T20:23:01.958Z,101689.41
2022-08-26T20:25:28.326Z,101689.44
2022-08-26T20:27:54.706Z,101688.63
2022-08-26T20:30:21.160Z,101693.53
2022-08-26T20:32:48.301Z,101687.75
2022-08-26T20:35:15.084Z,101686.94
2022-08-26T20:37:42.098Z,101693.94
2022-08-26T20:40:11.248Z,101690.03
2022-08-26T20:42:38.007Z,101691.88
2022-08-26T20:45:05.991Z,101689.22
2022-08-26T20:47:32.422Z,101681.84
2022-08-26T20:49:59.110Z,101681.56
2022-08-26T20:52:25.842Z,101695.34
2022-08-26T20:54:52.183Z,101698.38
2022-08-26T20:57:18.561Z,101699.41
2022-08-26T20:59:44.979Z,101703.47
2022-08-26T21:02:11.433Z,101707.34
2022-08-26T21:04:37.835Z,101698.53
2022-08-26T21:07:04.551Z,101700.16
2022-08-26T21:09:32.382Z,101697.72
2022-08-26T21:11:59.134Z,101694.34
2022-08-26T21:14:26.105Z,101700.09
2022-08-26T21:16:53.141Z,101702.34
2022-08-26T21:19:19.599Z,101699.06
2022-08-26T21:21:47.914Z,101699.88
2022-08-26T21:24:15.423Z,101691.84
2022-08-26T21:26:41.975Z,101701.53
2022-08-26T21:29:09.806Z,101692.47
2022-08-26T21:31:39.968Z,101699.47
2022-08-26T21:34:08.891Z,101696.97
2022-08-26T21:36:35.309Z,101700.22
2022-08-26T21:39:01.715Z,101700.22
2022-08-26T21:41:28.729Z,101696.34
2022-08-26T21:43:59.153Z,101700.91
2022-08-26T21:46:28.978Z,101692.09
2022-08-26T21:48:59.021Z,101697.59
2022-08-26T21:51:29.696Z,101694.66
2022-08-26T21:53:57.669Z,101695.84
2022-08-26T21:56:26.561Z,101700.16
2022-08-26T21:58:54.922Z,101696.88
2022-08-26T22:01:23.853Z,101697.31
2022-08-26T22:03:52.508Z,101699.09
2022-08-26T22:06:22.085Z,101701.13
2022-08-26T22:08:49.388Z,101696.53
2022-08-26T22:11:16.292Z,101697.09
2022-08-26T22:13:43.103Z,101704.38
2022-08-26T22:16:10.268Z,101700.28
2022-08-26T22:18:38.071Z,101703.13
2022-08-26T22:21:08.328Z,101710.13
2022-08-26T22:23:36.502Z,101703.75
2022-08-26T22:26:02.904Z,101709.91
2022-08-26T22:28:29.507Z,101705.16
2022-08-26T22:30:55.866Z,101708.00
2022-08-26T22:33:23.407Z,101704.34
2022-08-26T22:35:51.272Z,101707.00
2022-08-26T22:38:17.702Z,101703.44
2022-08-26T22:40:55.966Z,101710.84
2022-08-26T22:43:24.998Z,101710.66
2022-08-26T22:45:52.967Z,101705.16
2022-08-26T22:48:22.281Z,101707.00
2022-08-26T22:50:49.592Z,101704.53
2022-08-26T22:53:17.351Z,101693.59
2022-08-26T22:55:44.193Z,101700.13
2022-08-26T22:58:12.340Z,101706.66
2022-08-26T23:00:39.892Z,101704.00
2022-08-26T23:03:06.947Z,101693.34
2022-08-26T23:05:33.447Z,101695.47
2022-08-26T23:08:00.307Z,101692.56
2022-08-26T23:10:26.803Z,101697.09
2022-08-26T23:12:53.443Z,101694.78
2022-08-26T23:15:21.290Z,101689.44
2022-08-26T23:17:48.320Z,101692.88
2022-08-26T23:20:25.458Z,101691.59
2022-08-26T23:22:51.937Z,101693.81
2022-08-26T23:25:18.298Z,101693.53
2022-08-26T23:27:44.769Z,101692.25
2022-08-26T23:30:17.207Z,101695.47
2022-08-26T23:32:43.686Z,101691.63
2022-08-26T23:35:11.156Z,101692.25
2022-08-26T23:37:44.185Z,101689.97
2022-08-26T23:40:16.349Z,101689.25
2022-08-26T23:42:43.743Z,101691.06
2022-08-26T23:45:12.767Z,101687.22
2022-08-26T23:47:40.812Z,101690.06
2022-08-26T23:50:08.743Z,101687.75
2022-08-26T23:52:53.806Z,101685.38
2022-08-26T23:55:20.400Z,101677.13
2022-08-26T23:57:46.774Z,101685.00
